Data for 11/10/2017

Time Sea-Level Adjusted Pressure Absolute Pressure Temperature Relative Humidity Dew Point   
(mb) (inHg) (mb) (inHg) (C) (F) (%) (C) (F)
00:05 1014 29.94 843 24.89 2 35.7 71 -2.7 27.1
00:10 1014 29.94 843 24.89 1.9 35.4 71 -2.8 27
00:15 1014 29.94 843 24.89 1.7 35.1 73 -2.7 27.2
00:20 1014 29.94 843 24.89 1.7 35 73 -2.7 27.1
00:25 1014 29.94 843 24.89 1.7 35 73 -2.6 27.2
00:30 1014 29.94 843 24.89 1.6 34.9 73 -2.6 27.2
00:35 1014 29.94 843 24.89 1.4 34.5 73 -3 26.5
00:40 1014 29.94 843 24.89 0.6 33.2 75 -3.2 26.2
00:45 1014 29.94 843 24.89 -0 32 78 -3.3 26
00:50 1014 29.94 843 24.89 0.3 32.5 78 -3.2 26.2
00:55 1014 29.94 843 24.89 0.7 33.2 76 -3 26.6
01:00 1014 29.94 843 24.89 0.3 32.5 79 -3 26.7
01:05 1014 29.94 843 24.89 0.3 32.5 79 -3 26.6
01:10 1014 29.94 843 24.89 0.7 33.3 75 -3.2 26.3
01:15 1014 29.94 843 24.89 0.5 32.9 78 -2.8 26.9
01:20 1014 29.94 843 24.89 0.9 33.5 75 -3.1 26.4
01:25 1014 29.94 843 24.89 0.2 32.4 78 -3.1 26.5
01:30 1014 29.94 843 24.89 0.2 32.4 78 -3.2 26.2
01:35 1014 29.94 843 24.89 0.1 32.1 79 -3.2 26.2
01:40 1014 29.94 843 24.89 -0.3 31.4 80 -3.3 26.1
01:45 1014 29.94 843 24.89 -0.6 30.9 82 -3.4 25.9
01:50 1014 29.94 843 24.89 -0.9 30.4 82 -3.6 25.5
01:55 1014 29.94 843 24.89 -0.8 30.5 84 -3.2 26.2
02:00 1014 29.94 843 24.89 0 32.1 77 -3.5 25.6
02:05 1014 29.94 843 24.89 -0.2 31.6 79 -3.4 25.9
02:10 1014 29.94 843 24.89 -0.2 31.7 79 -3.3 26
02:15 1013 29.91 843 24.89 -0.6 30.9 85 -2.9 26.8
02:20 1013 29.91 843 24.89 -0.5 31.2 81 -3.4 26
02:25 1014 29.94 843 24.89 -0.7 30.8 82 -3.4 25.9
02:30 1014 29.94 843 24.89 -0.7 30.8 85 -3 26.7
02:35 1014 29.94 843 24.89 -0.3 31.5 80 -3.4 25.9
02:40 1014 29.94 843 24.89 -0.6 30.9 81 -3.4 25.8
02:45 1014 29.94 843 24.89 -1.1 30 83 -3.7 25.4
02:50 1014 29.94 843 24.89 -1.3 29.7 84 -3.7 25.4
02:55 1014 29.94 843 24.89 -1.1 30 83 -3.6 25.5
03:00 1014 29.94 843 24.89 -1.2 29.9 82 -3.8 25.2
03:05 1014 29.94 843 24.89 -1.2 29.8 83 -3.8 25.2
03:10 1014 29.94 843 24.89 -0.8 30.6 81 -3.6 25.5
03:15 1014 29.94 843 24.89 -1 30.3 83 -3.5 25.7
03:20 1014 29.94 843 24.89 -0.8 30.5 81 -3.7 25.3
03:25 1014 29.94 843 24.89 -0.8 30.6 81 -3.6 25.4
03:30 1014 29.94 843 24.89 -0.5 31.2 80 -3.6 25.6
03:35 1014 29.94 843 24.89 -0.2 31.7 78 -3.5 25.7
03:40 1014 29.94 843 24.89 -0.2 31.7 78 -3.5 25.7
03:45 1014 29.94 843 24.89 -0.5 31.1 80 -3.6 25.5
03:50 1014 29.94 843 24.89 -0.5 31.1 79 -3.7 25.3
03:55 1014 29.94 843 24.89 -0.2 31.6 79 -3.5 25.7
04:00 1014 29.94 843 24.89 0.1 32.1 76 -3.6 25.5
04:05 1014 29.94 843 24.89 -0 31.9 78 -3.5 25.7
04:10 1014 29.94 843 24.89 -0.1 31.8 78 -3.6 25.6
04:15 1014 29.94 843 24.89 0.2 32.3 77 -3.4 26
04:20 1014 29.94 843 24.89 -0 32 78 -3.4 25.8
04:25 1014 29.94 843 24.89 0.1 32.2 78 -3.3 26
04:30 1014 29.94 843 24.89 -0 32 79 -3.2 26.2
04:35 1014 29.94 843 24.89 0 32.1 76 -3.8 25.2
04:40 1014 29.94 843 24.89 0.2 32.4 76 -3.6 25.6
04:45 1014 29.94 843 24.89 -0.1 31.9 79 -3.2 26.2
04:50 1014 29.94 843 24.89 -0.2 31.6 79 -3.4 25.8
04:55 1014 29.94 843 24.89 -0.3 31.4 77 -3.9 25
05:00 1014 29.94 843 24.89 -0.4 31.2 77 -3.9 25
05:05 1014 29.94 843 24.89 -0.5 31.1 78 -3.8 25.1
05:10 1014 29.94 843 24.89 -0.4 31.4 77 -3.9 25
05:15 1014 29.94 843 24.89 -0.3 31.5 77 -3.8 25.2
05:20 1014 29.94 843 24.89 -0.3 31.5 78 -3.7 25.3
05:25 1014 29.94 843 24.89 -0.1 31.7 76 -3.8 25.2
05:30 1014 29.94 843 24.89 -0.1 31.9 76 -3.8 25.2
05:35 1014 29.94 843 24.89 -0 31.9 75 -4 24.8
05:40 1014 29.94 843 24.89 0.2 32.4 74 -3.9 25
05:45 1014 29.94 844 24.92 0.2 32.4 74 -3.9 25
05:50 1014 29.94 844 24.92 0.3 32.6 75 -3.7 25.4
05:55 1014 29.94 844 24.92 0.2 32.4 73 -4.1 24.7
06:00 1014 29.94 844 24.92 0.6 33.1 70 -4.2 24.4
06:05 1014 29.94 844 24.92 0.8 33.4 72 -3.6 25.5
06:10 1014 29.94 844 24.92 0.7 33.3 72 -3.7 25.3
06:15 1014 29.94 844 24.92 0.5 32.9 74 -3.7 25.4
06:20 1014 29.94 844 24.92 0.3 32.6 75 -3.6 25.4
06:25 1014 29.94 844 24.92 0.2 32.3 76 -3.6 25.5
06:30 1014 29.94 844 24.92 0.1 32.1 76 -3.7 25.3
06:35 1014 29.94 844 24.92 0.2 32.3 75 -3.7 25.4
06:40 1014 29.94 844 24.92 0.5 32.8 74 -3.6 25.5
06:45 1014 29.94 844 24.92 0.6 33 73 -3.7 25.4
06:50 1014 29.94 844 24.92 0.6 33.1 73 -3.7 25.4
06:55 1014 29.94 844 24.92 0.8 33.4 72 -3.8 25.2
07:00 1014 29.94 844 24.92 0.9 33.7 71 -3.7 25.3
07:05 1014 29.94 844 24.92 1 33.8 71 -3.7 25.3
07:10 1014 29.94 844 24.92 1.3 34.4 71 -3.4 25.8
07:15 1014 29.94 844 24.92 1.6 34.8 69 -3.6 25.6
07:20 1014 29.94 844 24.92 1.6 34.9 68 -3.6 25.5
07:25 1014 29.94 844 24.92 1.7 35 69 -3.5 25.7
07:30 1014 29.94 844 24.92 1.5 34.8 71 -3.2 26.3
07:35 1014 29.94 844 24.92 1.7 35 69 -3.5 25.8
07:40 1014 29.94 844 24.92 1.7 35.1 66 -3.9 24.9
07:45 1014 29.94 844 24.92 2.1 35.8 67 -3.4 25.8
07:50 1015 29.97 844 24.92 2.4 36.3 65 -3.6 25.5
07:55 1015 29.97 844 24.92 2.7 36.8 64 -3.4 25.8
08:00 1015 29.97 844 24.92 3.1 37.7 61 -3.7 25.3
08:05 1015 29.97 844 24.92 3.3 38 61 -3.6 25.6
08:10 1015 29.97 844 24.92 3.7 38.6 62 -3 26.5
08:15 1015 29.97 844 24.92 3.4 38.1 63 -3 26.5
08:20 1015 29.97 844 24.92 3.2 37.7 62 -3.3 26
08:25 1015 29.97 844 24.92 3.4 38.1 60 -3.6 25.6
08:30 1015 29.97 844 24.92 3.6 38.4 60 -3.4 25.9
08:35 1015 29.97 844 24.92 3.4 38.2 60 -3.5 25.6
08:40 1015 29.97 844 24.92 3.9 38.9 58 -3.7 25.3
08:45 1015 29.97 844 24.92 3.9 39 58 -3.6 25.5
08:50 1015 29.97 844 24.92 4.1 39.3 57 -3.8 25.2
08:55 1015 29.97 844 24.92 4.2 39.5 58 -3.3 26
09:00 1015 29.97 844 24.92 3.7 38.7 58 -3.8 25.2
09:05 1015 29.97 844 24.92 3.3 37.9 61 -3.6 25.6
09:10 1015 29.97 844 24.92 3.5 38.3 59 -3.8 25.1
09:15 1015 29.97 844 24.92 3.9 39 57 -3.7 25.3
09:20 1015 29.97 844 24.92 4.1 39.4 57 -3.6 25.5
09:25 1015 29.97 844 24.92 4.1 39.4 57 -3.7 25.4
09:30 1015 29.97 844 24.92 4.3 39.8 55 -3.9 25
09:35 1015 29.97 844 24.92 4.5 40.2 55 -3.8 25.2
09:40 1015 29.97 844 24.92 4.8 40.6 54 -3.9 25.1
09:45 1015 29.97 844 24.92 4.3 39.7 56 -3.8 25.2
09:50 1015 29.97 844 24.92 4.1 39.3 55 -4.1 24.6
09:55 1015 29.97 844 24.92 4.3 39.8 55 -4 24.8
10:00 1015 29.97 844 24.92 3.8 38.9 57 -3.9 25
10:05 1015 29.97 844 24.92 3.9 39 58 -3.6 25.5
10:10 1014 29.94 844 24.92 3.4 38.2 60 -3.6 25.5
10:15 1014 29.94 844 24.92 3.5 38.2 57 -4.2 24.4
10:20 1014 29.94 844 24.92 3.6 38.5 57 -4.1 24.7
10:25 1014 29.94 844 24.92 3.9 39 56 -4.1 24.6
10:30 1014 29.94 844 24.92 4.1 39.4 55 -4.1 24.5
10:35 1014 29.94 844 24.92 4.2 39.5 55 -4 24.8
10:40 1014 29.94 843 24.89 4.3 39.7 55 -3.9 24.9
10:45 1014 29.94 843 24.89 4.1 39.4 55 -4.2 24.4
10:50 1014 29.94 843 24.89 3.9 39 56 -4.1 24.6
10:55 1014 29.94 843 24.89 4 39.2 55 -4.2 24.5
11:00 1014 29.94 843 24.89 4 39.2 56 -3.9 25
11:05 1014 29.94 843 24.89 4 39.2 56 -4.1 24.7
11:10 1014 29.94 843 24.89 4.1 39.4 54 -4.4 24
11:15 1014 29.94 843 24.89 4.4 39.9 55 -3.9 25
11:20 1014 29.94 843 24.89 4.5 40.1 53 -4.2 24.5
11:25 1014 29.94 843 24.89 4.5 40.1 53 -4.4 24.2
11:30 1014 29.94 843 24.89 4.6 40.3 53 -4.3 24.3
11:35 1014 29.94 843 24.89 4.6 40.2 53 -4.1 24.6
11:40 1014 29.94 843 24.89 4.7 40.5 53 -4 24.9
11:45 1014 29.94 843 24.89 4.6 40.3 54 -4 24.8
11:50 1014 29.94 843 24.89 4.9 40.9 51 -4.4 24
11:55 1014 29.94 843 24.89 5.2 41.4 52 -3.9 25.1
12:00 1014 29.94 843 24.89 5.1 41.1 49 -4.6 23.6
12:05 1014 29.94 843 24.89 5.2 41.4 50 -4.4 24.2
12:10 1014 29.94 843 24.89 5.5 41.8 45 -5.4 22.3
12:15 1014 29.94 843 24.89 5 41.1 49 -4.8 23.4
12:20 1014 29.94 843 24.89 4.7 40.5 50 -4.9 23.1
12:25 1014 29.94 843 24.89 4.8 40.6 47 -5.5 22.1
12:30 1014 29.94 843 24.89 4.5 40.2 49 -5.3 22.5
12:35 1014 29.94 843 24.89 4.5 40.2 49 -5.2 22.7
12:40 1014 29.94 843 24.89 4.6 40.2 49 -5.3 22.4
12:45 1014 29.94 843 24.89 4.9 40.7 48 -5.4 22.3
12:50 1014 29.94 843 24.89 5.1 41.1 46 -5.6 21.9
12:55 1014 29.94 843 24.89 5.3 41.6 46 -5.3 22.5
13:00 1014 29.94 843 24.89 5.4 41.7 46 -5.2 22.6
13:05 1014 29.94 843 24.89 5.1 41.2 48 -4.9 23.1
13:10 1014 29.94 843 24.89 4.8 40.6 48 -5.4 22.2
13:15 1014 29.94 843 24.89 4.9 40.9 47 -5.4 22.3
13:20 1014 29.94 843 24.89 4.9 40.9 46 -5.9 21.4
13:25 1013 29.91 843 24.89 4.8 40.6 47 -5.6 21.9
13:30 1013 29.91 843 24.89 5.1 41.1 46 -5.7 21.8
13:35 1013 29.91 843 24.89 4.9 40.9 47 -5.3 22.5
13:40 1013 29.91 843 24.89 5.2 41.4 46 -5.5 22.1
13:45 1013 29.91 843 24.89 5.4 41.7 47 -5.1 22.9
13:50 1013 29.91 843 24.89 4.8 40.7 50 -4.7 23.5
13:55 1013 29.91 843 24.89 4.7 40.4 53 -4 24.8
14:00 1013 29.91 843 24.89 4.3 39.7 55 -4.1 24.7
14:05 1013 29.91 843 24.89 4.1 39.4 56 -4 24.8
14:10 1013 29.91 843 24.89 4.3 39.7 55 -4 24.9
14:15 1013 29.91 843 24.89 4.3 39.8 53 -4.4 24.1
14:20 1013 29.91 843 24.89 4.3 39.8 55 -4 24.8
14:25 1013 29.91 843 24.89 4.2 39.5 54 -4.3 24.3
14:30 1013 29.91 843 24.89 4.2 39.5 54 -4.3 24.3
14:35 1013 29.91 843 24.89 4.1 39.5 55 -4.1 24.6
14:40 1013 29.91 843 24.89 4.1 39.4 55 -4.1 24.6
14:45 1013 29.91 843 24.89 4.3 39.8 53 -4.4 24.1
14:50 1014 29.94 843 24.89 4.4 40 54 -4.2 24.5
14:55 1014 29.94 843 24.89 4.6 40.4 52 -4.3 24.3
15:00 1014 29.94 843 24.89 4.8 40.7 52 -4.1 24.6
15:05 1014 29.94 843 24.89 4.5 40.2 54 -3.9 25
15:10 1014 29.94 843 24.89 4.1 39.4 56 -4 24.8
15:15 1014 29.94 843 24.89 4 39.2 56 -4.1 24.6
15:20 1014 29.94 843 24.89 3.9 39.1 58 -3.7 25.3
15:25 1014 29.94 843 24.89 3.8 38.9 59 -3.5 25.8
15:30 1014 29.94 843 24.89 3.8 38.8 62 -2.9 26.7
15:35 1014 29.94 843 24.89 3.7 38.6 62 -2.9 26.8
15:40 1014 29.94 843 24.89 3.6 38.6 62 -2.9 26.7
15:45 1014 29.94 843 24.89 3.7 38.6 62 -3 26.6
15:50 1014 29.94 843 24.89 3.6 38.5 62 -3 26.6
15:55 1014 29.94 843 24.89 3.6 38.4 63 -2.8 27
16:00 1014 29.94 843 24.89 3.4 38.2 61 -3.3 26
16:05 1014 29.94 843 24.89 3.6 38.5 61 -3.2 26.3
16:10 1014 29.94 843 24.89 3.7 38.7 61 -3.1 26.4
16:15 1014 29.94 843 24.89 3.8 38.8 61 -3.1 26.5
16:20 1014 29.94 843 24.89 3.7 38.6 62 -2.9 26.7
16:25 1014 29.94 843 24.89 3.5 38.3 62 -3 26.5
16:30 1014 29.94 843 24.89 3.5 38.3 62 -3 26.6
16:35 1014 29.94 843 24.89 3.7 38.7 61 -3.1 26.4
16:40 1014 29.94 843 24.89 3.7 38.6 62 -2.9 26.7
16:45 1014 29.94 843 24.89 3.3 38 64 -2.9 26.7
16:50 1014 29.94 843 24.89 3.2 37.8 61 -3.7 25.3
16:55 1014 29.94 843 24.89 3.4 38.1 61 -3.5 25.7
17:00 1014 29.94 843 24.89 3.4 38.2 59 -3.7 25.3
17:05 1014 29.94 843 24.89 3.7 38.6 58 -3.7 25.4
17:10 1014 29.94 843 24.89 3.9 39 58 -3.6 25.5
17:15 1014 29.94 843 24.89 3.5 38.4 62 -3 26.6
17:20 1014 29.94 843 24.89 3.2 37.7 65 -2.8 27
17:25 1014 29.94 843 24.89 3 37.3 67 -2.6 27.3
17:30 1014 29.94 843 24.89 2.9 37.3 65 -2.9 26.7
17:35 1014 29.94 843 24.89 3 37.5 65 -2.9 26.7
17:40 1014 29.94 843 24.89 3 37.5 65 -3 26.6
17:45 1014 29.94 843 24.89 3.1 37.5 65 -2.8 27
17:50 1014 29.94 843 24.89 3.1 37.6 66 -2.7 27.2
17:55 1014 29.94 843 24.89 3.1 37.5 67 -2.5 27.4
18:00 1014 29.94 843 24.89 2.9 37.3 68 -2.3 27.8
18:05 1014 29.94 843 24.89 2.8 37.1 68 -2.4 27.6
18:10 1014 29.94 843 24.89 2.9 37.2 69 -2.3 27.8
18:15 1014 29.94 843 24.89 2.9 37.3 68 -2.3 27.8
18:20 1014 29.94 843 24.89 2.9 37.2 70 -2.1 28.3
18:25 1014 29.94 843 24.89 2.7 36.9 69 -2.4 27.7
18:30 1014 29.94 843 24.89 3 37.3 67 -2.5 27.5
18:35 1014 29.94 843 24.89 3.1 37.5 67 -2.5 27.5
18:40 1014 29.94 843 24.89 3 37.4 68 -2.3 27.8
18:45 1014 29.94 843 24.89 2.7 36.8 71 -2 28.4
18:50 1014 29.94 843 24.89 2.3 36.2 74 -1.8 28.8
18:55 1014 29.94 843 24.89 2 35.6 75 -2 28.3
19:00 1014 29.94 843 24.89 2.2 36 73 -2.1 28.2
19:05 1014 29.94 843 24.89 2.6 36.6 74 -1.6 29.2
19:10 1014 29.94 843 24.89 2.4 36.3 76 -1.5 29.3
19:15 1014 29.94 843 24.89 2 35.6 78 -1.5 29.4
19:20 1014 29.94 843 24.89 1.7 35.1 79 -1.5 29.2
19:25 1014 29.94 843 24.89 1.4 34.5 80 -1.7 28.9
19:30 1014 29.94 843 24.89 1.3 34.3 79 -2 28.4
19:35 1014 29.94 843 24.89 1.1 33.9 79 -2.2 28
19:40 1014 29.94 843 24.89 0.8 33.4 80 -2.2 28.1
19:45 1014 29.94 843 24.89 0.7 33.3 80 -2.4 27.8
19:50 1014 29.94 843 24.89 0.7 33.2 81 -2.3 27.9
19:55 1014 29.94 843 24.89 0.7 33.3 82 -2 28.3
20:00 1014 29.94 843 24.89 0.9 33.5 81 -2 28.4
20:05 1014 29.94 843 24.89 0.9 33.7 82 -1.9 28.6
20:10 1014 29.94 843 24.89 1 33.9 80 -1.9 28.5
20:15 1014 29.94 843 24.89 1.3 34.3 78 -2.1 28.3
20:20 1014 29.94 843 24.89 1.4 34.5 78 -2 28.3
20:25 1014 29.94 843 24.89 1.3 34.3 78 -2.2 28.1
20:30 1014 29.94 844 24.92 1.2 34.1 77 -2.4 27.6
20:35 1014 29.94 844 24.92 0.9 33.7 77 -2.7 27.2
20:40 1014 29.94 843 24.89 0.7 33.2 78 -2.8 27
20:45 1014 29.94 843 24.89 0.7 33.2 78 -2.7 27.2
20:50 1014 29.94 844 24.92 0.5 32.9 79 -2.7 27.1
20:55 1015 29.97 844 24.92 0.4 32.8 79 -2.8 27
21:00 1015 29.97 844 24.92 0.6 33.1 79 -2.6 27.3
21:05 1015 29.97 844 24.92 0.5 32.8 80 -2.6 27.4
21:10 1015 29.97 844 24.92 0.2 32.4 81 -2.7 27.2
21:15 1015 29.97 844 24.92 0.1 32.1 81 -2.8 26.9
21:20 1015 29.97 844 24.92 0.4 32.7 81 -2.6 27.3
21:25 1015 29.97 844 24.92 0.5 32.9 80 -2.5 27.4
21:30 1015 29.97 844 24.92 0.7 33.2 81 -2.2 28
21:35 1015 29.97 844 24.92 0.7 33.3 80 -2.3 27.9
21:40 1015 29.97 844 24.92 0.5 33 80 -2.5 27.6
21:45 1015 29.97 844 24.92 0.3 32.6 81 -2.5 27.5
21:50 1015 29.97 844 24.92 0.5 32.9 81 -2.4 27.6
21:55 1015 29.97 844 24.92 0.5 33 80 -2.6 27.4
22:00 1015 29.97 844 24.92 0.6 33.1 79 -2.5 27.4
22:05 1015 29.97 844 24.92 0.7 33.3 80 -2.4 27.6
22:10 1015 29.97 844 24.92 0.9 33.7 80 -2.2 28.1
22:15 1015 29.97 844 24.92 1.1 34 79 -2.1 28.3
22:20 1015 29.97 844 24.92 1.2 34.1 80 -1.9 28.6
22:25 1015 29.97 844 24.92 1.1 33.9 81 -1.9 28.6
22:30 1015 29.97 844 24.92 1 33.9 82 -1.7 28.9
22:35 1015 29.97 844 24.92 1.2 34.2 81 -1.7 28.9
22:40 1015 29.97 844 24.92 1.2 34.1 81 -1.7 29
22:45 1015 29.97 844 24.92 1.2 34.2 81 -1.6 29.1
22:50 1015 29.97 844 24.92 1.3 34.3 82 -1.4 29.4
22:55 1015 29.97 844 24.92 1.4 34.4 83 -1.3 29.7
23:00 1015 29.97 844 24.92 1.5 34.7 82 -1.2 29.8
23:05 1015 29.97 844 24.92 1.5 34.8 83 -1 30.2
23:10 1015 29.97 844 24.92 1.6 34.8 84 -0.9 30.4
23:15 1015 29.97 844 24.92 1.5 34.8 84 -0.8 30.5
23:20 1015 29.97 844 24.92 1.5 34.7 84 -0.9 30.5
23:25 1015 29.97 844 24.92 1.3 34.4 85 -0.9 30.4
23:30 1015 29.97 844 24.92 1.1 33.9 86 -1 30.3
23:35 1015 29.97 844 24.92 0.9 33.7 87 -1 30.3
23:40 1015 29.97 844 24.92 0.9 33.6 88 -0.9 30.4
23:45 1015 29.97 844 24.92 0.9 33.5 88 -0.9 30.4
23:50 1015 29.97 844 24.92 0.8 33.4 88 -0.9 30.4
23:55 1015 29.97 844 24.92 0.6 33 89 -1 30.2
24:00 1015 29.97 844 24.92 0.4 32.7 90 -1 30.1